createdAt,value
2022-10-05T00:01:44.342Z,17.70
2022-10-05T00:04:15.431Z,17.70
2022-10-05T00:06:44.505Z,17.70
2022-10-05T00:09:16.736Z,17.50
2022-10-05T00:11:44.916Z,17.60
2022-10-05T00:14:17.715Z,17.70
2022-10-05T00:16:46.225Z,17.70
2022-10-05T00:19:19.280Z,17.80
2022-10-05T00:21:47.470Z,17.70
2022-10-05T00:24:19.459Z,17.70
2022-10-05T00:26:48.952Z,17.80
2022-10-05T00:29:22.715Z,17.80
2022-10-05T00:31:51.227Z,17.60
2022-10-05T00:34:19.369Z,17.70
2022-10-05T00:36:47.893Z,17.80
2022-10-05T00:39:18.864Z,17.60
2022-10-05T00:41:55.286Z,17.50
2022-10-05T00:44:27.262Z,17.50
2022-10-05T00:46:56.739Z,17.70
2022-10-05T00:49:34.106Z,17.70
2022-10-05T00:52:08.232Z,17.50
2022-10-05T00:54:43.567Z,17.50
2022-10-05T00:57:19.443Z,17.40
2022-10-05T00:59:53.049Z,17.40
2022-10-05T01:02:24.980Z,17.40
2022-10-05T01:04:55.499Z,17.40
2022-10-05T01:07:30.396Z,17.40
2022-10-05T01:10:04.959Z,17.50
2022-10-05T01:12:37.328Z,17.50
2022-10-05T01:15:09.725Z,17.40
2022-10-05T01:17:41.994Z,17.30
2022-10-05T01:20:22.843Z,17.40
2022-10-05T01:23:23.987Z,17.30
2022-10-05T01:25:58.802Z,17.40
2022-10-05T01:28:29.842Z,17.20
2022-10-05T01:31:00.850Z,17.10
2022-10-05T01:33:31.936Z,17.00
2022-10-05T01:36:03.326Z,17.10
2022-10-05T01:38:37.363Z,17.10
2022-10-05T01:41:19.686Z,17.20
2022-10-05T01:43:50.307Z,17.30
2022-10-05T01:46:24.415Z,17.20
2022-10-05T01:49:06.480Z,17.10
2022-10-05T01:51:39.478Z,17.10
2022-10-05T01:54:13.381Z,16.80
2022-10-05T01:56:44.621Z,16.80
2022-10-05T01:59:18.952Z,16.90
2022-10-05T02:01:50.963Z,17.00
2022-10-05T02:04:56.493Z,16.60
2022-10-05T02:07:15.124Z,16.60
2022-10-05T02:09:45.985Z,16.70
2022-10-05T02:12:16.484Z,16.70
2022-10-05T02:14:48.465Z,16.70
2022-10-05T02:17:19.303Z,16.60
2022-10-05T02:19:48.745Z,16.70
2022-10-05T02:22:21.317Z,16.50
2022-10-05T02:24:52.303Z,16.60
2022-10-05T02:27:22.733Z,16.60
2022-10-05T02:29:52.910Z,16.70
2022-10-05T02:32:24.006Z,16.70
2022-10-05T02:34:52.250Z,16.40
2022-10-05T02:37:29.329Z,16.40
2022-10-05T02:40:06.176Z,16.50
2022-10-05T02:42:39.443Z,16.50
2022-10-05T02:45:15.329Z,16.50
2022-10-05T02:47:48.165Z,16.60
2022-10-05T02:50:24.446Z,16.40
2022-10-05T02:52:57.336Z,16.50
2022-10-05T02:55:28.555Z,16.50
2022-10-05T02:57:59.237Z,16.40
2022-10-05T03:00:32.814Z,16.50
2022-10-05T03:03:03.314Z,16.30
2022-10-05T03:05:35.305Z,16.30
2022-10-05T03:08:06.214Z,16.20
2022-10-05T03:10:37.406Z,16.30
2022-10-05T03:13:07.361Z,16.40
2022-10-05T03:15:56.908Z,16.50
2022-10-05T03:18:32.805Z,16.50
2022-10-05T03:21:08.557Z,16.60
2022-10-05T03:23:42.045Z,16.50
2022-10-05T03:26:22.710Z,16.70
2022-10-05T03:28:54.975Z,16.60
2022-10-05T03:31:27.030Z,16.70
2022-10-05T03:33:59.232Z,16.80
2022-10-05T03:36:31.495Z,16.80
2022-10-05T03:39:03.868Z,16.80
2022-10-05T03:41:36.185Z,16.80
2022-10-05T03:44:17.688Z,16.60
2022-10-05T03:46:52.489Z,16.50
2022-10-05T03:49:25.069Z,16.50
2022-10-05T03:51:57.476Z,16.50
2022-10-05T03:54:28.327Z,16.70
2022-10-05T03:56:58.253Z,16.60
2022-10-05T03:59:32.369Z,16.60
2022-10-05T04:02:03.468Z,16.70
2022-10-05T04:04:35.949Z,16.70
2022-10-05T04:07:06.920Z,16.70
2022-10-05T04:09:38.498Z,16.60
2022-10-05T04:12:10.960Z,16.70
2022-10-05T04:14:42.012Z,16.60
2022-10-05T04:17:13.234Z,16.80
2022-10-05T04:19:45.176Z,16.80
2022-10-05T04:22:16.866Z,16.90
2022-10-05T04:24:47.345Z,17.00
2022-10-05T04:27:17.667Z,17.00
2022-10-05T04:29:49.399Z,16.90
2022-10-05T04:32:29.984Z,17.10
2022-10-05T04:35:19.724Z,17.20
2022-10-05T04:37:51.125Z,17.20
2022-10-05T04:40:32.031Z,17.30
2022-10-05T04:43:05.940Z,17.20
2022-10-05T04:45:42.803Z,17.10
2022-10-05T04:48:26.024Z,17.20
2022-10-05T04:51:02.099Z,17.30
2022-10-05T04:53:33.104Z,17.20
2022-10-05T04:56:04.652Z,16.90
2022-10-05T04:58:42.221Z,16.80
2022-10-05T05:01:20.749Z,16.90
2022-10-05T05:04:02.701Z,16.90
2022-10-05T05:06:35.652Z,16.80
2022-10-05T05:09:19.431Z,16.90
2022-10-05T05:11:55.651Z,16.90
2022-10-05T05:14:40.333Z,16.90
2022-10-05T05:17:15.783Z,16.80
2022-10-05T05:19:51.609Z,17.10
2022-10-05T05:22:26.881Z,17.10
2022-10-05T05:25:04.357Z,17.20
2022-10-05T05:27:39.605Z,17.30
2022-10-05T05:30:13.152Z,17.20
2022-10-05T05:32:45.749Z,17.10
2022-10-05T05:35:29.470Z,16.90
2022-10-05T05:38:04.207Z,17.00
2022-10-05T05:40:34.595Z,16.90
2022-10-05T05:43:05.552Z,16.80
2022-10-05T05:45:39.655Z,16.80
2022-10-05T05:48:15.103Z,17.00
2022-10-05T05:50:49.674Z,17.20
2022-10-05T05:53:22.238Z,17.10
2022-10-05T05:55:52.962Z,17.20
2022-10-05T05:58:24.282Z,17.30
2022-10-05T06:00:56.290Z,17.30
2022-10-05T06:03:27.679Z,17.20
2022-10-05T06:05:57.559Z,17.20
2022-10-05T06:08:28.955Z,17.30
2022-10-05T06:11:06.417Z,17.30
2022-10-05T06:13:35.491Z,17.30
2022-10-05T06:16:09.821Z,17.40
2022-10-05T06:18:42.655Z,17.30
2022-10-05T06:21:14.170Z,17.30
2022-10-05T06:23:46.306Z,17.40
2022-10-05T06:26:19.100Z,17.50
2022-10-05T06:28:50.628Z,17.60
2022-10-05T06:31:24.972Z,17.60
2022-10-05T06:34:02.918Z,17.70
2022-10-05T06:36:39.710Z,17.70
2022-10-05T06:39:26.866Z,17.60
2022-10-05T06:42:04.355Z,17.50
2022-10-05T06:44:57.536Z,17.30
2022-10-05T06:47:37.426Z,17.50
2022-10-05T06:50:31.025Z,17.50
2022-10-05T06:53:30.324Z,17.60
2022-10-05T06:56:03.629Z,17.60
2022-10-05T06:58:42.663Z,17.50
2022-10-05T07:01:15.291Z,17.60
2022-10-05T07:03:52.396Z,17.60
2022-10-05T07:06:25.005Z,17.70
2022-10-05T07:09:03.951Z,17.80
2022-10-05T07:11:40.173Z,17.80
2022-10-05T07:14:19.183Z,17.90
2022-10-05T07:16:55.232Z,17.90
2022-10-05T07:19:29.683Z,18.00
2022-10-05T07:22:04.353Z,18.00
2022-10-05T07:24:34.512Z,17.70
2022-10-05T07:27:10.020Z,17.70
2022-10-05T07:29:46.707Z,17.60
2022-10-05T07:32:23.596Z,17.70
2022-10-05T07:34:57.933Z,17.90
2022-10-05T07:37:49.298Z,18.00
2022-10-05T07:40:20.600Z,18.10
2022-10-05T07:42:57.346Z,18.00
2022-10-05T07:45:34.413Z,18.00
2022-10-05T07:48:07.542Z,18.10
2022-10-05T07:50:37.343Z,18.10
2022-10-05T07:53:06.726Z,18.00
2022-10-05T07:55:37.536Z,18.00
2022-10-05T07:58:12.452Z,17.90
2022-10-05T08:00:54.106Z,17.90
2022-10-05T08:03:27.656Z,17.80
2022-10-05T08:05:56.142Z,17.90
2022-10-05T08:08:26.520Z,18.10
2022-10-05T08:10:56.254Z,18.00
2022-10-05T08:13:28.288Z,18.10
2022-10-05T08:15:59.639Z,18.00
2022-10-05T08:18:35.908Z,18.00
2022-10-05T08:21:05.810Z,18.10
2022-10-05T08:23:36.052Z,18.10
2022-10-05T08:26:08.008Z,18.00
2022-10-05T08:28:38.718Z,18.10
2022-10-05T08:31:15.186Z,18.30
2022-10-05T08:33:47.410Z,18.30
2022-10-05T08:36:17.036Z,18.30
2022-10-05T08:38:45.583Z,18.30
2022-10-05T08:41:29.662Z,18.30
2022-10-05T08:44:05.694Z,18.30
2022-10-05T08:46:46.886Z,18.30
2022-10-05T08:49:36.297Z,18.20
2022-10-05T08:52:23.081Z,18.40
2022-10-05T08:55:03.923Z,18.40
2022-10-05T08:57:51.718Z,18.50
2022-10-05T09:00:21.080Z,18.30
2022-10-05T09:03:00.491Z,18.30
2022-10-05T09:05:56.431Z,18.30
2022-10-05T09:08:33.241Z,18.50
2022-10-05T09:11:07.070Z,18.70
2022-10-05T09:13:49.808Z,18.70
2022-10-05T09:16:32.934Z,18.60
2022-10-05T09:19:22.803Z,18.50
2022-10-05T09:21:57.602Z,18.70
2022-10-05T09:24:29.738Z,18.70
2022-10-05T09:27:03.558Z,18.90
2022-10-05T09:29:52.634Z,18.90
2022-10-05T09:32:35.420Z,19.10
2022-10-05T09:35:15.098Z,18.90
2022-10-05T09:38:04.223Z,18.80
2022-10-05T09:40:53.357Z,18.70
2022-10-05T09:43:40.168Z,18.80
2022-10-05T09:46:39.126Z,18.80
2022-10-05T09:49:19.135Z,18.90
2022-10-05T09:52:01.813Z,18.90
2022-10-05T09:55:01.685Z,19.00
2022-10-05T09:57:50.790Z,19.20
2022-10-05T10:00:26.445Z,19.30
2022-10-05T10:03:14.783Z,19.30
2022-10-05T10:05:55.229Z,19.30
2022-10-05T10:08:30.054Z,19.30
2022-10-05T10:11:03.151Z,19.20
2022-10-05T10:13:45.679Z,19.30
2022-10-05T10:16:17.582Z,19.20
2022-10-05T10:18:57.181Z,19.40
2022-10-05T10:21:37.598Z,19.50
2022-10-05T10:24:14.888Z,19.50
2022-10-05T10:27:00.645Z,19.40
2022-10-05T10:29:41.178Z,19.40
2022-10-05T10:32:17.110Z,19.40
2022-10-05T10:35:04.111Z,19.40
2022-10-05T10:37:39.433Z,19.50
2022-10-05T10:40:20.082Z,19.70
2022-10-05T10:42:58.996Z,19.80
2022-10-05T10:45:40.192Z,19.80
2022-10-05T10:48:10.804Z,19.80
2022-10-05T10:50:48.738Z,19.90
2022-10-05T10:53:25.934Z,20.10
2022-10-05T10:56:01.816Z,20.20
2022-10-05T10:58:48.759Z,20.10
2022-10-05T11:01:25.893Z,19.90
2022-10-05T11:04:02.315Z,19.80
2022-10-05T11:06:43.775Z,19.80
2022-10-05T11:09:21.821Z,19.80
2022-10-05T11:12:09.055Z,19.80
2022-10-05T11:14:53.119Z,19.70
2022-10-05T11:17:29.404Z,19.70
2022-10-05T11:20:05.192Z,19.80
2022-10-05T11:22:40.464Z,20.10
2022-10-05T11:25:35.973Z,20.20
2022-10-05T11:28:09.634Z,20.40
2022-10-05T11:30:52.047Z,20.30
2022-10-05T11:33:36.714Z,20.10
2022-10-05T11:36:16.571Z,20.20
2022-10-05T11:38:59.570Z,20.10
2022-10-05T11:41:38.400Z,20.10
2022-10-05T11:44:21.362Z,20.20
2022-10-05T11:46:54.754Z,20.40
2022-10-05T11:49:30.735Z,20.60
2022-10-05T11:52:03.032Z,20.70
2022-10-05T11:55:09.333Z,20.70
2022-10-05T11:57:38.537Z,20.70
2022-10-05T12:00:12.379Z,20.50
2022-10-05T12:03:01.024Z,20.60
2022-10-05T12:05:33.805Z,20.70
2022-10-05T12:08:08.069Z,20.70
2022-10-05T12:10:42.557Z,21.00
2022-10-05T12:13:27.674Z,21.00
2022-10-05T12:15:59.159Z,20.90
2022-10-05T12:18:44.603Z,20.80
2022-10-05T12:21:17.661Z,20.90
2022-10-05T12:23:47.563Z,21.00
2022-10-05T12:26:17.434Z,20.90
2022-10-05T12:28:48.163Z,20.90
2022-10-05T12:31:31.276Z,20.80
2022-10-05T12:34:04.170Z,20.90
2022-10-05T12:36:59.641Z,21.00
2022-10-05T12:39:30.756Z,21.10
2022-10-05T12:42:04.305Z,21.10
2022-10-05T12:44:43.084Z,21.20
2022-10-05T12:47:14.180Z,21.20
2022-10-05T12:49:54.143Z,21.20
2022-10-05T12:52:30.685Z,21.10
2022-10-05T12:55:00.674Z,21.00
2022-10-05T12:57:34.157Z,20.90
2022-10-05T13:00:05.137Z,20.80
2022-10-05T13:02:36.747Z,20.90
2022-10-05T13:05:14.399Z,20.90
2022-10-05T13:07:48.735Z,20.80
2022-10-05T13:10:22.584Z,20.70
2022-10-05T13:12:54.111Z,20.70
2022-10-05T13:15:28.073Z,20.60
2022-10-05T13:18:02.200Z,20.60
2022-10-05T13:20:33.898Z,20.40
2022-10-05T13:23:08.026Z,20.30
2022-10-05T13:25:37.624Z,20.20
2022-10-05T13:28:16.678Z,20.00
2022-10-05T13:30:51.125Z,19.70
2022-10-05T13:33:26.470Z,19.70
2022-10-05T13:36:00.105Z,19.80
2022-10-05T13:38:34.214Z,19.70
2022-10-05T13:41:08.733Z,19.40
2022-10-05T13:43:43.583Z,19.30
2022-10-05T13:46:16.642Z,19.10
2022-10-05T13:48:50.465Z,19.00
2022-10-05T13:51:20.287Z,19.00
2022-10-05T13:53:56.176Z,19.30
2022-10-05T13:56:27.183Z,19.40
2022-10-05T13:59:00.463Z,19.20
2022-10-05T14:01:36.532Z,19.30
2022-10-05T14:04:06.465Z,19.10
2022-10-05T14:06:38.736Z,19.00
2022-10-05T14:09:12.275Z,19.10
2022-10-05T14:11:48.240Z,19.00
2022-10-05T14:14:18.170Z,19.10
2022-10-05T14:16:50.704Z,19.00
2022-10-05T14:19:20.328Z,19.00
2022-10-05T14:21:55.419Z,19.00
2022-10-05T14:24:43.632Z,19.00
2022-10-05T14:27:19.810Z,19.00
2022-10-05T14:29:55.443Z,18.90
2022-10-05T14:32:24.463Z,18.90
2022-10-05T14:35:01.308Z,19.10
2022-10-05T14:37:33.171Z,19.20
2022-10-05T14:40:22.885Z,19.30
2022-10-05T14:42:51.425Z,19.30
2022-10-05T14:45:20.879Z,19.20
2022-10-05T14:47:50.415Z,19.20
2022-10-05T14:50:21.329Z,19.30
2022-10-05T14:53:01.559Z,19.50
2022-10-05T14:55:55.767Z,19.50
2022-10-05T14:58:36.406Z,19.40
2022-10-05T15:01:13.742Z,19.60
2022-10-05T15:03:46.810Z,19.70
2022-10-05T15:06:19.560Z,19.70
2022-10-05T15:08:53.790Z,19.50
2022-10-05T15:11:30.704Z,19.60
2022-10-05T15:14:01.249Z,19.40
2022-10-05T15:16:31.730Z,19.40
2022-10-05T15:19:03.302Z,19.50
2022-10-05T15:21:35.832Z,19.60
2022-10-05T15:24:06.367Z,19.60
2022-10-05T15:26:40.371Z,19.70
2022-10-05T15:29:14.277Z,19.70
2022-10-05T15:31:46.735Z,19.60
2022-10-05T15:34:19.151Z,19.70
2022-10-05T15:36:50.525Z,19.70
2022-10-05T15:39:22.900Z,19.70
2022-10-05T15:41:58.392Z,19.60
2022-10-05T15:44:33.061Z,19.60
2022-10-05T15:47:04.780Z,19.70
2022-10-05T15:49:37.856Z,19.70
2022-10-05T15:52:09.997Z,19.70
2022-10-05T15:54:55.766Z,19.70
2022-10-05T15:57:26.259Z,19.70
2022-10-05T16:00:00.379Z,19.60
2022-10-05T16:02:34.227Z,19.70
2022-10-05T16:05:08.389Z,19.80
2022-10-05T16:07:58.015Z,19.80
2022-10-05T16:10:27.411Z,19.80
2022-10-05T16:13:01.799Z,19.90
2022-10-05T16:15:34.624Z,19.90
2022-10-05T16:18:09.962Z,19.80
2022-10-05T16:20:42.505Z,19.70
2022-10-05T16:23:15.474Z,19.80
2022-10-05T16:25:48.216Z,19.80
2022-10-05T16:28:21.749Z,19.80
2022-10-05T16:30:56.404Z,19.80
2022-10-05T16:33:29.331Z,19.90
2022-10-05T16:36:03.570Z,19.70
2022-10-05T16:38:38.598Z,19.70
2022-10-05T16:41:13.108Z,19.70
2022-10-05T16:43:45.941Z,20.00
2022-10-05T16:46:22.238Z,20.00
2022-10-05T16:48:53.712Z,19.90
2022-10-05T16:51:27.965Z,19.80
2022-10-05T16:54:03.162Z,19.70
2022-10-05T16:56:35.409Z,19.70
2022-10-05T16:59:10.403Z,19.80
2022-10-05T17:01:48.494Z,19.80
2022-10-05T17:04:23.791Z,19.80
2022-10-05T17:06:58.967Z,19.60
2022-10-05T17:09:36.552Z,19.70
2022-10-05T17:12:12.735Z,19.60
2022-10-05T17:14:51.220Z,19.60
2022-10-05T17:17:37.636Z,19.70
2022-10-05T17:20:23.717Z,19.70
2022-10-05T17:22:52.924Z,19.70
2022-10-05T17:25:25.340Z,19.70
2022-10-05T17:27:54.471Z,19.80
2022-10-05T17:30:24.348Z,20.00
2022-10-05T17:32:56.643Z,19.90
2022-10-05T17:35:51.827Z,19.90
2022-10-05T17:38:21.965Z,19.90
2022-10-05T17:41:06.296Z,19.70
2022-10-05T17:43:34.946Z,19.70
2022-10-05T17:46:03.918Z,19.60
2022-10-05T17:49:06.760Z,19.60
2022-10-05T17:52:11.424Z,19.70
2022-10-05T17:55:12.308Z,19.50
2022-10-05T17:57:42.023Z,19.70
2022-10-05T18:00:31.629Z,19.70
2022-10-05T18:03:00.219Z,19.80
2022-10-05T18:05:29.001Z,19.60
2022-10-05T18:08:16.577Z,19.80
2022-10-05T18:10:59.766Z,20.00
2022-10-05T18:13:36.424Z,19.80
2022-10-05T18:16:05.601Z,19.80
2022-10-05T18:18:55.880Z,19.80
2022-10-05T18:21:28.159Z,19.90
2022-10-05T18:24:19.409Z,19.80
2022-10-05T18:26:52.243Z,19.80
2022-10-05T18:29:41.170Z,20.00
2022-10-05T18:32:13.697Z,20.00
2022-10-05T18:34:44.858Z,20.10
2022-10-05T18:37:21.404Z,20.10
2022-10-05T18:40:00.367Z,20.00
2022-10-05T18:42:33.147Z,19.80
2022-10-05T18:45:09.204Z,19.80
2022-10-05T18:47:42.018Z,19.70
2022-10-05T18:50:16.581Z,19.70
2022-10-05T18:52:49.843Z,19.70
2022-10-05T18:55:20.191Z,19.70
2022-10-05T18:58:01.708Z,19.70
2022-10-05T19:00:35.698Z,19.50
2022-10-05T19:03:08.293Z,19.60
2022-10-05T19:05:48.136Z,19.60
2022-10-05T19:08:25.286Z,19.50
2022-10-05T19:10:56.400Z,19.50
2022-10-05T19:13:37.757Z,19.50
2022-10-05T19:16:15.326Z,19.60
2022-10-05T19:18:53.267Z,19.70
2022-10-05T19:21:26.602Z,19.70
2022-10-05T19:24:18.043Z,19.80
2022-10-05T19:26:53.695Z,19.70
2022-10-05T19:29:28.551Z,19.80
2022-10-05T19:32:02.663Z,19.80
2022-10-05T19:34:38.992Z,19.60
2022-10-05T19:37:13.993Z,19.50
2022-10-05T19:39:48.204Z,19.20
2022-10-05T19:42:25.407Z,19.10
2022-10-05T19:44:59.703Z,19.10
2022-10-05T19:47:36.363Z,19.10
2022-10-05T19:50:20.852Z,19.20
2022-10-05T19:52:52.243Z,19.10
2022-10-05T19:55:26.466Z,19.10
2022-10-05T19:57:55.797Z,19.00
2022-10-05T20:00:25.298Z,18.90
2022-10-05T20:03:08.995Z,18.90
2022-10-05T20:05:37.626Z,18.90
2022-10-05T20:08:06.201Z,18.80
2022-10-05T20:10:34.684Z,18.90
2022-10-05T20:13:04.064Z,19.00
2022-10-05T20:15:50.407Z,18.90
2022-10-05T20:18:56.738Z,19.00
2022-10-05T20:21:41.813Z,18.70
2022-10-05T20:24:10.967Z,18.80
2022-10-05T20:27:01.450Z,18.80
2022-10-05T20:29:30.286Z,18.90
2022-10-05T20:31:58.510Z,18.80
2022-10-05T20:34:28.010Z,18.70
2022-10-05T20:36:56.315Z,18.70
2022-10-05T20:39:24.462Z,18.60
2022-10-05T20:41:52.716Z,18.70
2022-10-05T20:44:21.109Z,18.60
2022-10-05T20:46:49.255Z,18.70
2022-10-05T20:49:17.454Z,18.80
2022-10-05T20:51:47.160Z,18.70
2022-10-05T20:54:19.063Z,18.80
2022-10-05T20:56:47.458Z,18.80
2022-10-05T20:59:16.655Z,18.70
2022-10-05T21:01:48.096Z,18.70
2022-10-05T21:04:16.842Z,18.70
2022-10-05T21:06:44.937Z,18.50
2022-10-05T21:09:15.332Z,18.40
2022-10-05T21:11:43.819Z,18.50
2022-10-05T21:14:12.445Z,18.50
2022-10-05T21:16:41.371Z,18.40
2022-10-05T21:19:10.367Z,18.40
2022-10-05T21:21:39.092Z,18.60
2022-10-05T21:24:07.662Z,18.60
2022-10-05T21:26:37.710Z,18.60
2022-10-05T21:29:10.238Z,18.60
2022-10-05T21:31:41.188Z,18.50
2022-10-05T21:34:09.757Z,18.30
2022-10-05T21:36:38.574Z,18.30
2022-10-05T21:39:06.944Z,18.20
2022-10-05T21:41:34.984Z,18.00
2022-10-05T21:44:06.362Z,18.00
2022-10-05T21:46:36.302Z,18.10
2022-10-05T21:49:04.596Z,17.90
2022-10-05T21:51:32.584Z,18.00
2022-10-05T21:54:02.822Z,18.10
2022-10-05T21:56:32.488Z,18.20
2022-10-05T21:59:02.058Z,18.30
2022-10-05T22:01:31.902Z,18.20
2022-10-05T22:04:00.048Z,18.20
2022-10-05T22:06:28.464Z,18.10
2022-10-05T22:08:56.804Z,18.00
2022-10-05T22:11:24.858Z,18.00
2022-10-05T22:13:54.040Z,17.90
2022-10-05T22:16:24.702Z,17.90
2022-10-05T22:18:54.386Z,18.00
2022-10-05T22:21:22.387Z,18.00
2022-10-05T22:23:50.843Z,17.90
2022-10-05T22:26:20.362Z,17.90
2022-10-05T22:28:48.749Z,17.90
2022-10-05T22:31:17.053Z,17.90
2022-10-05T22:33:45.407Z,17.80
2022-10-05T22:36:14.945Z,17.70
2022-10-05T22:38:44.841Z,17.70
2022-10-05T22:41:13.642Z,17.70
2022-10-05T22:43:41.760Z,17.60
2022-10-05T22:46:10.822Z,17.50
2022-10-05T22:48:39.176Z,17.60
2022-10-05T22:51:07.314Z,17.50
2022-10-05T22:53:37.610Z,17.50
2022-10-05T22:56:06.689Z,17.60
2022-10-05T22:58:34.866Z,17.40
2022-10-05T23:01:04.323Z,17.30
2022-10-05T23:03:32.577Z,17.20
2022-10-05T23:06:03.123Z,17.20
2022-10-05T23:08:31.988Z,17.20
2022-10-05T23:11:04.885Z,17.20
2022-10-05T23:13:33.409Z,17.20
2022-10-05T23:16:06.288Z,17.00
2022-10-05T23:18:35.323Z,17.10
2022-10-05T23:21:03.369Z,17.20
2022-10-05T23:23:31.516Z,16.90
2022-10-05T23:26:00.158Z,17.00
2022-10-05T23:28:30.253Z,17.00
2022-10-05T23:30:59.926Z,17.00
2022-10-05T23:33:28.624Z,17.00
2022-10-05T23:36:00.246Z,16.80
2022-10-05T23:38:28.596Z,16.70
2022-10-05T23:40:58.585Z,16.80
2022-10-05T23:43:26.965Z,16.70
2022-10-05T23:45:56.771Z,16.70
2022-10-05T23:48:25.530Z,16.70
2022-10-05T23:50:54.010Z,16.80
2022-10-05T23:53:22.162Z,16.80
2022-10-05T23:55:50.834Z,16.70
2022-10-05T23:58:19.202Z,16.60
